Axel, Colorado
Current Conditions -  °F | °C
As of 4:53 PM on Sunday 23 Nov 2014 (Local Time) from KEEO Reporting Station
Broken Clouds Broken Clouds  
Wind Chill: 18°   Ceiling: 5500
Heat Index: 29°   Visibility: 10mi
Dew Point: 13°   Wind: 14mph
Humidity: 51%   Direction: 320°NW
Pressure: 30.02"   Gusts: 22mph
Location:  40.0347°N, 107.628°W
Report Text: KEEO 232353Z AUTO 32012G19KT 10SM BKN055 BKN070 M02/M11 A3002 RMK AO2 PK WND 31026/2314 SLP191 60001 T10171106 10006 21022 53013
Loading
Personal Weather Stations






























Interactive Weather Map New forecast layout! Learn more

10-Day Weather Forecast

Advertisements
Track Severe Weather on mobile